Terminal Aerodrome Forecast
Issued by NWS Wichita, KS

Home | Current Version | Previous Version | Text Only | Print | Product List | Glossary On
Versions: 1 2 3 4 5 6 7 8 9 10 11 12 13 14 15 16 17 18 19
507
FTUS43 KICT 280520
TAFICT
TAF
KICT 280520Z 2806/2906 03007KT P6SM SCT060
     FM281100 02006KT P6SM BKN030
     FM281600 06007KT P6SM BKN035
     FM282000 06009KT P6SM SCT045
     FM290100 07007KT P6SM FEW200=

USA.gov is the U.S. government's official web portal to all federal, state and local government web resources and services.